createdAt,value
2022-09-04T00:02:08.338Z,11.38
2022-09-04T00:04:53.727Z,10.55
2022-09-04T00:07:31.440Z,11.23
2022-09-04T00:10:12.529Z,11.40
2022-09-04T00:12:58.613Z,11.45
2022-09-04T00:15:42.512Z,11.60
2022-09-04T00:18:31.684Z,10.13
2022-09-04T00:21:23.149Z,11.80
2022-09-04T00:24:09.054Z,12.32
2022-09-04T00:27:04.442Z,13.10
2022-09-04T00:30:04.334Z,11.55
2022-09-04T00:32:40.720Z,13.23
2022-09-04T00:35:25.599Z,11.65
2022-09-04T00:38:33.782Z,12.10
2022-09-04T00:41:13.624Z,12.63
2022-09-04T00:44:19.322Z,12.43
2022-09-04T00:47:04.710Z,11.77
2022-09-04T00:50:00.652Z,12.18
2022-09-04T00:52:36.635Z,11.38
2022-09-04T00:55:25.378Z,12.48
2022-09-04T00:58:17.962Z,11.73
2022-09-04T01:00:49.341Z,12.68
2022-09-04T01:03:41.482Z,13.45
2022-09-04T01:06:47.239Z,11.23
2022-09-04T01:09:26.076Z,13.10
2022-09-04T01:12:18.774Z,15.00
2022-09-04T01:15:01.640Z,14.70
2022-09-04T01:18:07.704Z,12.13
2022-09-04T01:20:49.061Z,12.55
2022-09-04T01:24:02.256Z,12.98
2022-09-04T01:27:10.372Z,13.00
2022-09-04T01:30:09.258Z,12.00
2022-09-04T01:32:38.787Z,13.18
2022-09-04T01:35:38.499Z,11.68
2022-09-04T01:41:01.322Z,13.88
2022-09-04T01:43:32.130Z,11.00
2022-09-04T01:46:11.512Z,11.52
2022-09-04T01:48:46.541Z,11.75
2022-09-04T01:51:28.863Z,10.93
2022-09-04T01:54:28.682Z,12.82
2022-09-04T01:57:21.329Z,15.98
2022-09-04T02:00:11.522Z,11.38
2022-09-04T02:02:56.619Z,12.48
2022-09-04T02:05:32.110Z,14.55
2022-09-04T02:08:30.394Z,12.13
2022-09-04T02:11:10.807Z,11.50
2022-09-04T02:14:05.459Z,11.07
2022-09-04T02:17:10.396Z,13.07
2022-09-04T02:20:00.909Z,13.23
2022-09-04T02:22:33.123Z,12.70
2022-09-04T02:25:20.360Z,11.93
2022-09-04T02:28:15.383Z,12.02
2022-09-04T02:31:11.854Z,11.43
2022-09-04T02:34:04.381Z,13.30
2022-09-04T02:36:39.965Z,13.18
2022-09-04T02:39:21.171Z,11.82
2022-09-04T02:42:22.780Z,10.98
2022-09-04T02:45:18.544Z,12.93
2022-09-04T02:48:29.434Z,13.75
2022-09-04T02:51:39.950Z,14.25
2022-09-04T02:54:21.849Z,15.73
2022-09-04T02:57:30.625Z,14.65
2022-09-04T03:00:09.654Z,12.02
2022-09-04T03:03:12.844Z,13.23
2022-09-04T03:06:05.106Z,11.18
2022-09-04T03:08:53.440Z,14.50
2022-09-04T03:11:54.724Z,16.08
2022-09-04T03:14:50.463Z,13.10
2022-09-04T03:17:47.624Z,13.90
2022-09-04T03:20:21.126Z,12.13
2022-09-04T03:22:50.410Z,13.20
2022-09-04T03:25:34.060Z,11.32
2022-09-04T03:28:04.078Z,12.30
2022-09-04T03:30:38.354Z,10.55
2022-09-04T03:33:16.554Z,9.73
2022-09-04T03:35:56.663Z,10.73
2022-09-04T03:38:34.195Z,10.52
2022-09-04T03:41:36.310Z,12.13
2022-09-04T03:44:33.755Z,11.38
2022-09-04T03:47:21.346Z,11.77
2022-09-04T03:50:37.499Z,13.43
2022-09-04T03:54:04.256Z,12.50
2022-09-04T03:56:53.869Z,10.77
2022-09-04T03:59:46.634Z,12.20
2022-09-04T04:02:47.498Z,12.25
2022-09-04T04:05:16.550Z,11.80
2022-09-04T04:08:00.177Z,10.73
2022-09-04T04:10:36.484Z,10.30
2022-09-04T04:13:43.987Z,11.75
2022-09-04T04:16:28.498Z,9.90
2022-09-04T04:19:22.315Z,10.00
2022-09-04T04:22:12.859Z,11.80
2022-09-04T04:25:16.181Z,10.68
2022-09-04T04:28:21.033Z,10.68
2022-09-04T04:30:55.688Z,11.25
2022-09-04T04:33:49.028Z,8.90
2022-09-04T04:36:48.974Z,10.30
2022-09-04T04:39:46.591Z,9.70
2022-09-04T04:42:43.035Z,10.20
2022-09-04T04:45:52.760Z,10.93
2022-09-04T04:48:28.097Z,9.50
2022-09-04T04:51:09.595Z,9.18
2022-09-04T04:53:55.424Z,9.90
2022-09-04T04:56:56.966Z,9.18
2022-09-04T04:59:36.254Z,10.32
2022-09-04T05:02:27.046Z,8.93
2022-09-04T05:05:14.790Z,9.52
2022-09-04T05:08:08.387Z,9.45
2022-09-04T05:11:17.089Z,8.27
2022-09-04T05:14:07.566Z,10.32
2022-09-04T05:16:58.227Z,10.63
2022-09-04T05:19:32.434Z,11.98
2022-09-04T05:22:16.789Z,11.63
2022-09-04T05:25:22.562Z,11.35
2022-09-04T05:28:48.595Z,12.75
2022-09-04T05:31:43.184Z,9.70
2022-09-04T05:34:41.567Z,7.93
2022-09-04T05:38:00.996Z,10.60
2022-09-04T05:41:07.366Z,10.20
2022-09-04T05:44:30.415Z,10.73
2022-09-04T05:47:08.065Z,9.77
2022-09-04T05:50:04.375Z,11.10
2022-09-04T05:53:02.129Z,9.88
2022-09-04T05:55:52.700Z,10.85
2022-09-04T05:58:55.712Z,10.73
2022-09-04T06:01:43.127Z,11.13
2022-09-04T06:04:27.400Z,10.73
2022-09-04T06:07:06.865Z,9.18
2022-09-04T06:09:52.343Z,10.82
2022-09-04T06:12:28.965Z,10.98
2022-09-04T06:15:16.241Z,10.13
2022-09-04T06:18:02.291Z,9.98
2022-09-04T06:21:03.312Z,9.90
2022-09-04T06:24:19.786Z,8.93
2022-09-04T06:27:25.535Z,10.15
2022-09-04T06:30:18.911Z,9.25
2022-09-04T06:33:03.276Z,8.73
2022-09-04T06:35:48.326Z,9.60
2022-09-04T06:38:29.354Z,9.82
2022-09-04T06:41:20.370Z,8.75
2022-09-04T06:44:13.907Z,8.65
2022-09-04T06:46:49.856Z,9.48
2022-09-04T06:49:28.291Z,9.27
2022-09-04T06:52:22.387Z,8.57
2022-09-04T06:57:51.395Z,8.43
2022-09-04T07:00:21.255Z,9.50
2022-09-04T07:03:24.384Z,10.30
2022-09-04T07:06:31.907Z,10.65
2022-09-04T07:09:16.189Z,8.85
2022-09-04T07:12:34.757Z,10.10
2022-09-04T07:15:37.601Z,8.85
2022-09-04T07:18:27.058Z,8.73
2022-09-04T07:21:22.512Z,8.02
2022-09-04T07:24:03.659Z,8.07
2022-09-04T07:27:00.594Z,9.85
2022-09-04T07:30:02.292Z,9.63
2022-09-04T07:33:00.317Z,8.85
2022-09-04T07:35:55.388Z,8.13
2022-09-04T07:39:01.566Z,8.55
2022-09-04T07:41:40.319Z,8.45
2022-09-04T07:44:24.577Z,8.60
2022-09-04T07:47:15.349Z,7.68
2022-09-04T07:50:16.817Z,8.20
2022-09-04T07:53:14.784Z,8.27
2022-09-04T07:56:00.871Z,7.65
2022-09-04T07:59:00.779Z,7.75
2022-09-04T08:01:45.395Z,7.32
2022-09-04T08:04:23.647Z,7.97
2022-09-04T08:07:11.375Z,7.47
2022-09-04T08:10:15.007Z,7.53
2022-09-04T08:13:13.385Z,7.68
2022-09-04T08:16:13.414Z,7.60
2022-09-04T08:19:19.538Z,8.00
2022-09-04T08:21:51.530Z,7.47
2022-09-04T08:24:47.498Z,7.43
2022-09-04T08:27:44.405Z,8.20
2022-09-04T08:30:19.476Z,7.50
2022-09-04T08:33:28.634Z,7.63
2022-09-04T08:36:13.931Z,7.22
2022-09-04T08:39:04.677Z,7.97
2022-09-04T08:42:12.814Z,7.55
2022-09-04T08:45:18.548Z,7.22
2022-09-04T08:47:58.874Z,7.25
2022-09-04T08:50:40.634Z,7.78
2022-09-04T08:53:51.175Z,7.00
2022-09-04T08:56:36.225Z,6.75
2022-09-04T08:59:38.887Z,7.65
2022-09-04T09:02:52.456Z,6.55
2022-09-04T09:05:39.956Z,6.28
2022-09-04T09:08:27.442Z,6.80
2022-09-04T09:11:27.163Z,6.53
2022-09-04T09:14:14.725Z,6.60
2022-09-04T09:16:46.594Z,6.78
2022-09-04T09:19:49.338Z,5.47
2022-09-04T09:22:37.165Z,6.20
2022-09-04T09:25:21.634Z,5.35
2022-09-04T09:28:12.061Z,4.93
2022-09-04T09:31:08.403Z,10.10
2022-09-04T09:34:15.294Z,5.80
2022-09-04T09:37:22.755Z,4.22
2022-09-04T09:40:12.988Z,4.47
2022-09-04T09:42:57.048Z,4.00
2022-09-04T09:45:53.483Z,4.50
2022-09-04T09:48:48.922Z,5.07
2022-09-04T09:51:48.628Z,5.15
2022-09-04T09:55:01.522Z,5.00
2022-09-04T09:58:07.135Z,4.60
2022-09-04T10:01:08.487Z,5.05
2022-09-04T10:03:40.849Z,5.40
2022-09-04T10:06:31.384Z,4.63
2022-09-04T10:09:18.656Z,11.52
2022-09-04T10:12:09.332Z,3.80
2022-09-04T10:15:11.896Z,5.72
2022-09-04T10:18:08.522Z,3.63
2022-09-04T10:20:43.473Z,4.40
2022-09-04T10:23:27.747Z,4.22
2022-09-04T10:26:27.017Z,4.65
2022-09-04T10:29:17.196Z,4.38
2022-09-04T10:31:55.372Z,5.03
2022-09-04T10:34:47.510Z,4.13
2022-09-04T10:37:31.219Z,5.25
2022-09-04T10:40:42.183Z,8.13
2022-09-04T10:43:43.996Z,10.18
2022-09-04T10:46:23.238Z,8.95
2022-09-04T10:49:22.984Z,8.98
2022-09-04T10:52:29.924Z,7.93
2022-09-04T10:55:10.124Z,7.72
2022-09-04T10:58:12.534Z,5.65
2022-09-04T11:01:05.155Z,9.70
2022-09-04T11:03:58.796Z,8.15
2022-09-04T11:06:43.419Z,9.83
2022-09-04T11:09:50.466Z,10.05
2022-09-04T11:12:56.702Z,10.07
2022-09-04T11:16:05.674Z,9.20
2022-09-04T11:18:46.616Z,4.80
2022-09-04T11:21:36.980Z,6.80
2022-09-04T11:24:24.060Z,4.30
2022-09-04T11:27:37.541Z,3.75
2022-09-04T11:30:15.474Z,3.42
2022-09-04T11:33:03.613Z,4.00
2022-09-04T11:35:51.777Z,3.95
2022-09-04T11:38:44.767Z,3.20
2022-09-04T11:41:33.463Z,3.40
2022-09-04T11:44:26.371Z,9.80
2022-09-04T11:47:14.728Z,9.82
2022-09-04T11:50:08.170Z,3.50
2022-09-04T11:53:15.902Z,3.87
2022-09-04T11:56:06.623Z,4.28
2022-09-04T11:59:06.650Z,3.83
2022-09-04T12:02:03.241Z,3.53
2022-09-04T12:04:44.553Z,3.88
2022-09-04T12:07:17.292Z,3.80
2022-09-04T12:10:08.073Z,3.75
2022-09-04T12:13:15.049Z,4.10
2022-09-04T12:16:16.617Z,4.18
2022-09-04T12:19:13.961Z,3.75
2022-09-04T12:22:11.685Z,3.50
2022-09-04T12:24:40.996Z,3.70
2022-09-04T12:27:13.608Z,4.20
2022-09-04T12:30:02.176Z,5.28
2022-09-04T12:32:49.232Z,4.80
2022-09-04T12:35:46.699Z,5.20
2022-09-04T12:39:02.492Z,5.35
2022-09-04T12:42:03.406Z,6.57
2022-09-04T12:44:56.705Z,3.22
2022-09-04T12:47:38.415Z,3.78
2022-09-04T12:50:36.098Z,3.30
2022-09-04T12:53:27.032Z,3.65
2022-09-04T12:56:07.896Z,3.90
2022-09-04T12:58:49.878Z,4.35
2022-09-04T13:01:44.327Z,4.35
2022-09-04T13:07:03.115Z,3.60
2022-09-04T13:09:42.805Z,3.55
2022-09-04T13:12:56.423Z,4.18
2022-09-04T13:15:35.786Z,3.45
2022-09-04T13:18:10.171Z,3.53
2022-09-04T13:23:37.087Z,3.70
2022-09-04T13:26:25.485Z,4.20
2022-09-04T13:29:17.098Z,3.40
2022-09-04T13:31:56.159Z,3.88
2022-09-04T13:35:10.387Z,5.65
2022-09-04T13:37:58.398Z,6.70
2022-09-04T13:40:42.173Z,6.30
2022-09-04T13:43:42.574Z,6.03
2022-09-04T13:46:40.130Z,5.10
2022-09-04T13:49:20.037Z,5.20
2022-09-04T13:52:05.934Z,5.35
2022-09-04T13:54:37.781Z,5.07
2022-09-04T13:57:22.289Z,4.45
2022-09-04T13:59:53.135Z,4.82
2022-09-04T14:02:26.496Z,4.78
2022-09-04T14:05:24.295Z,5.22
2022-09-04T14:08:18.932Z,5.10
2022-09-04T14:11:14.029Z,4.95
2022-09-04T14:14:42.361Z,7.38
2022-09-04T14:17:13.654Z,5.95
2022-09-04T14:19:54.673Z,5.75
2022-09-04T14:22:27.477Z,6.82
2022-09-04T14:28:22.464Z,4.78
2022-09-04T14:30:29.374Z,5.32
2022-09-04T14:31:21.979Z,5.00
2022-09-04T14:34:38.643Z,5.38
2022-09-04T14:37:31.839Z,5.60
2022-09-04T14:40:07.198Z,4.75
2022-09-04T14:42:47.121Z,5.50
2022-09-04T14:45:37.497Z,4.68
2022-09-04T14:48:12.553Z,5.30
2022-09-04T14:51:01.164Z,4.80
2022-09-04T14:53:35.539Z,5.15
2022-09-04T14:56:14.114Z,4.68
2022-09-04T14:58:53.438Z,5.00
2022-09-04T15:01:25.422Z,4.82
2022-09-04T15:04:01.189Z,4.63
2022-09-04T15:07:07.901Z,4.88
2022-09-04T15:09:50.349Z,5.28
2022-09-04T15:12:28.664Z,5.70
2022-09-04T15:15:06.617Z,4.55
2022-09-04T15:17:40.060Z,5.00
2022-09-04T15:20:17.102Z,4.72
2022-09-04T15:22:58.380Z,4.70
2022-09-04T15:26:01.958Z,5.10
2022-09-04T15:28:35.680Z,4.93
2022-09-04T15:31:18.901Z,4.88
2022-09-04T15:33:50.305Z,5.22
2022-09-04T15:36:25.220Z,5.03
2022-09-04T15:38:58.972Z,4.47
2022-09-04T15:41:46.103Z,5.65
2022-09-04T15:44:33.247Z,5.30
2022-09-04T15:47:20.670Z,5.35
2022-09-04T15:50:01.740Z,5.60
2022-09-04T15:52:43.211Z,5.15
2022-09-04T15:55:41.566Z,4.97
2022-09-04T15:58:16.473Z,5.28
2022-09-04T16:01:09.351Z,5.10
2022-09-04T16:03:53.529Z,4.75
2022-09-04T16:09:26.895Z,5.38
2022-09-04T16:12:18.453Z,4.85
2022-09-04T16:14:56.191Z,4.88
2022-09-04T16:17:32.360Z,5.00
2022-09-04T16:20:23.780Z,5.25
2022-09-04T16:23:02.851Z,5.30
2022-09-04T16:25:53.915Z,4.65
2022-09-04T16:31:35.851Z,4.70
2022-09-04T16:34:26.266Z,4.95
2022-09-04T16:37:10.674Z,4.95
2022-09-04T16:40:02.430Z,4.63
2022-09-04T16:42:44.802Z,5.50
2022-09-04T16:45:20.627Z,5.32
2022-09-04T16:48:43.083Z,5.40
2022-09-04T16:51:39.968Z,4.68
2022-09-04T16:54:50.230Z,4.60
2022-09-04T16:57:22.604Z,4.60
2022-09-04T17:00:11.768Z,5.18
2022-09-04T17:02:49.816Z,5.40
2022-09-04T17:05:29.448Z,5.13
2022-09-04T17:08:14.477Z,7.00
2022-09-04T17:10:59.124Z,5.63
2022-09-04T17:13:46.797Z,4.80
2022-09-04T17:16:19.220Z,5.35
2022-09-04T17:18:56.660Z,5.50
2022-09-04T17:27:03.093Z,5.15
2022-09-04T17:29:11.132Z,5.80
2022-09-04T17:29:12.478Z,5.32
2022-09-04T17:30:54.494Z,5.53
2022-09-04T17:38:44.058Z,11.05
2022-09-04T17:40:44.405Z,7.20
2022-09-04T17:40:49.125Z,13.45
2022-09-04T17:43:24.555Z,11.98
2022-09-04T17:46:14.710Z,9.85
2022-09-04T17:48:47.771Z,8.85
2022-09-04T17:51:26.899Z,11.25
2022-09-04T17:54:08.660Z,4.90
2022-09-04T17:57:05.448Z,4.70
2022-09-04T18:00:00.907Z,5.45
2022-09-04T18:02:39.210Z,5.88
2022-09-04T18:05:11.650Z,5.50
2022-09-04T18:08:08.898Z,5.20
2022-09-04T18:10:54.099Z,5.78
2022-09-04T18:13:38.018Z,5.15
2022-09-04T18:16:25.240Z,5.30
2022-09-04T18:19:11.289Z,5.68
2022-09-04T18:22:25.019Z,5.03
2022-09-04T18:24:53.238Z,6.80
2022-09-04T18:27:45.899Z,6.07
2022-09-04T18:33:32.405Z,5.57
2022-09-04T18:37:18.588Z,5.75
2022-09-04T18:37:20.591Z,5.82
2022-09-04T18:39:43.329Z,6.30
2022-09-04T18:50:22.112Z,6.38
2022-09-04T18:50:29.499Z,7.57
2022-09-04T18:50:31.400Z,6.82
2022-09-04T18:51:31.686Z,6.05
2022-09-04T18:54:33.505Z,6.30
2022-09-04T18:57:13.457Z,6.35
2022-09-04T18:59:47.139Z,6.00
2022-09-04T19:02:31.343Z,5.80
2022-09-04T19:05:09.849Z,6.45
2022-09-04T19:07:57.607Z,6.22
2022-09-04T19:10:36.818Z,5.43
2022-09-04T19:13:22.256Z,5.97
2022-09-04T19:16:29.871Z,6.00
2022-09-04T19:19:14.216Z,5.80
2022-09-04T19:21:58.626Z,5.30
2022-09-04T19:24:43.057Z,5.35
2022-09-04T19:33:01.022Z,5.72
2022-09-04T19:35:33.411Z,5.20
2022-09-04T19:45:56.555Z,5.35
2022-09-04T19:45:57.292Z,5.53
2022-09-04T19:46:19.488Z,4.90
2022-09-04T19:47:41.998Z,5.03
2022-09-04T19:53:19.311Z,5.97
2022-09-04T19:53:48.721Z,5.35
2022-09-04T19:56:38.109Z,6.20
2022-09-04T19:59:32.429Z,5.43
2022-09-04T20:02:03.223Z,5.68
2022-09-04T20:04:48.113Z,5.60
2022-09-04T20:10:30.588Z,5.55
2022-09-04T20:13:17.495Z,6.40
2022-09-04T20:15:56.020Z,5.57
2022-09-04T20:18:30.785Z,5.53
2022-09-04T20:21:09.998Z,6.15
2022-09-04T20:23:45.481Z,5.53
2022-09-04T20:26:30.754Z,5.75
2022-09-04T20:29:34.428Z,5.43
2022-09-04T20:32:17.355Z,5.88
2022-09-04T20:35:13.615Z,5.85
2022-09-04T20:37:45.941Z,6.45
2022-09-04T20:40:26.978Z,6.18
2022-09-04T20:43:06.336Z,5.97
2022-09-04T20:48:20.824Z,5.93
2022-09-04T20:52:48.975Z,5.78
2022-09-04T20:52:50.485Z,5.65
2022-09-04T20:54:39.389Z,5.15
2022-09-04T21:01:02.244Z,5.35
2022-09-04T21:03:11.424Z,5.32
2022-09-04T21:03:36.788Z,5.40
2022-09-04T21:06:27.486Z,5.70
2022-09-04T21:09:15.226Z,6.50
2022-09-04T21:11:51.928Z,5.32
2022-09-04T21:14:35.152Z,5.40
2022-09-04T21:17:36.044Z,5.95
2022-09-04T21:20:33.204Z,5.47
2022-09-04T21:23:20.626Z,5.53
2022-09-04T21:26:19.319Z,6.20
2022-09-04T21:29:10.677Z,5.57
2022-09-04T21:32:10.887Z,5.70
2022-09-04T21:35:04.198Z,5.03
2022-09-04T21:38:03.518Z,5.03
2022-09-04T21:40:51.236Z,5.82
2022-09-04T21:43:35.819Z,6.00
2022-09-04T21:46:13.104Z,5.30
2022-09-04T21:49:24.363Z,6.28
2022-09-04T21:51:55.515Z,5.75
2022-09-04T21:59:28.202Z,5.97
2022-09-04T22:02:35.218Z,6.75
2022-09-04T22:02:42.822Z,7.43
2022-09-04T22:04:14.473Z,8.00
2022-09-04T22:10:21.718Z,9.32
2022-09-04T22:13:31.404Z,7.60
2022-09-04T22:16:00.719Z,6.60
2022-09-04T22:19:05.672Z,6.45
2022-09-04T22:22:03.429Z,5.53
2022-09-04T22:24:33.210Z,5.65
2022-09-04T22:27:37.640Z,5.60
2022-09-04T22:30:24.417Z,6.10
2022-09-04T22:33:21.242Z,5.88
2022-09-04T22:36:23.965Z,6.88
2022-09-04T22:39:04.901Z,6.88
2022-09-04T22:41:58.652Z,8.00
2022-09-04T22:44:40.016Z,7.73
2022-09-04T22:47:49.471Z,6.60
2022-09-04T22:50:49.333Z,8.85
2022-09-04T22:53:29.071Z,7.60
2022-09-04T22:56:11.167Z,6.85
2022-09-04T22:58:55.807Z,6.35
2022-09-04T23:02:14.389Z,6.13
2022-09-04T23:05:08.099Z,6.25
2022-09-04T23:11:46.679Z,6.70
2022-09-04T23:14:01.714Z,7.05
2022-09-04T23:14:14.648Z,6.88
2022-09-04T23:17:20.373Z,7.30
2022-09-04T23:24:47.881Z,6.65
2022-09-04T23:26:46.613Z,7.65
2022-09-04T23:27:00.460Z,16.95
2022-09-04T23:30:06.885Z,14.80
2022-09-04T23:32:56.992Z,15.65
2022-09-04T23:35:57.577Z,15.52
2022-09-04T23:38:45.243Z,14.05
2022-09-04T23:41:35.608Z,15.57
2022-09-04T23:44:47.136Z,16.25
2022-09-04T23:47:48.521Z,18.45
2022-09-04T23:50:39.160Z,17.70
2022-09-04T23:53:23.558Z,19.58
2022-09-04T23:56:20.278Z,16.08
2022-09-04T23:59:22.778Z,13.68
